McNary, Oregon
Current Conditions -  °F | °C
As of 10:53 PM on Tuesday 21 Oct 2014 (Local Time) from KHRI Reporting Station
Clear Clear  
Wind Chill: 43°   Ceiling: Unl
Heat Index: 45°   Visibility: 10mi
Dew Point: 40°   Wind: 5mph
Humidity: 82%   Direction: 110°ESE
Pressure: 29.93"   Gusts: NA
Location:  45.9093°N, 119.286°W
Report Text: KHRI 220553Z AUTO 11004KT 10SM CLR 07/04 A2993 RMK AO2 SLP135 T00720044 10178 20072 58006
Loading
Personal Weather Stations






























Interactive Weather Map
Tropical Storm Tracking
New forecast layout! Learn more

10-Day Weather Forecast

Advertisements
Track Severe Weather on mobile